ADDS METAR Data INFO
IDs: Format: Raw Decoded Include TAF

Data at: 2300 UTC 16 Jan 2018

KFLY 162255Z AUTO 21007KT 10SM CLR M02/M15 A3031 RMK AO2 T10191155
KFLY 162235Z AUTO 20009KT 10SM CLR M01/M15 A3030 RMK AO2 T10131155
KFLY 162215Z AUTO 19009KT 10SM CLR M01/M16 A3031 RMK AO2 T10101161
KFLY 162155Z AUTO 20007KT 10SM CLR 00/M15 A3031 RMK AO2 T10021152
KFLY 162135Z AUTO 21007KT 10SM CLR 00/M16 A3031 RMK AO2 T10051159
KFLY 162115Z AUTO 19007KT 10SM CLR 00/M17 A3031 RMK AO2 T10021174
KFLY 162055Z AUTO 19007KT 10SM CLR 00/M17 A3031 RMK AO2 T10011174
KFLY 162035Z AUTO 20007KT 10SM CLR 00/M17 A3032 RMK AO2 T00001170
KFLY 162015Z AUTO 19006KT 10SM CLR 00/M17 A3032 RMK AO2 T10021167
KFLY 161955Z AUTO 19006KT 10SM CLR M01/M15 A3032 RMK AO2 T10091152
KFLY 161935Z AUTO 21004KT 10SM CLR M01/M16 A3033 RMK AO2 T10081162
KFLY 161915Z AUTO 21003KT 10SM CLR M01/M16 A3035 RMK AO2 T10131156
KFLY 161855Z AUTO 20003KT 10SM CLR M02/M15 A3036 RMK AO2 T10201155
KFLY 161835Z AUTO 21005KT 10SM CLR M02/M15 A3037 RMK AO2 T10241151
KFLY 161815Z AUTO 24005KT 10SM CLR M03/M15 A3038 RMK AO2 T10321151
KFLY 161755Z AUTO 21007KT 10SM CLR M04/M14 A3038 RMK AO2 T10361143 11035 21187
KFLY 161735Z AUTO 22004KT 10SM CLR M04/M16 A3040 RMK AO2 T10391156
KFLY 161715Z AUTO 22004KT 10SM CLR M04/M14 A3041 RMK AO2 T10451144
KFLY 161655Z AUTO 23004KT 10SM CLR M05/M14 A3041 RMK AO2 T10531139
KFLY 161635Z AUTO 21003KT 10SM CLR M06/M13 A3040 RMK AO2 T10641135
KFLY 161615Z AUTO 00000KT 10SM CLR M07/M14 A3040 RMK AO2 T10751141
KFLY 161555Z AUTO 00000KT 10SM CLR M08/M14 A3040 RMK AO2 T10821138
KFLY 161535Z AUTO 26005KT 10SM CLR M10/M15 A3039 RMK AO2 T10971150
KFLY 161515Z AUTO 00000KT 10SM CLR M11/M18 A3038 RMK AO2 T11081181
KFLY 161455Z AUTO 32003KT 10SM CLR M11/M17 A3038 RMK AO2 T11141173
KFLY 161435Z AUTO 34003KT 10SM CLR M14/M18 A3039 RMK AO2 T11401182
KFLY 161415Z AUTO 00000KT 10SM CLR M16/M18 A3039 RMK AO2 T11581180
KFLY 161355Z AUTO 26004KT 10SM CLR M17/M19 A3038 RMK AO2 T11681195
KFLY 161335Z AUTO 00000KT 10SM CLR M18/M20 A3039 RMK AO2 T11821200
KFLY 161315Z AUTO 25005KT 10SM CLR M19/M20 A3038 RMK AO2 T11861204
KFLY 161255Z AUTO 26005KT 10SM SCT001 M19/M20 A3038 RMK AO2 T11871204
KFLY 161235Z AUTO 26006KT 5SM BR SCT001 M18/M19 A3038 RMK AO2 T11761192
KFLY 161215Z AUTO 27007KT 7SM -SN BKN001 M17/M19 A3038 RMK AO2 T11701187
KFLY 161155Z AUTO 26007KT 4SM -SN BKN001 M16/M17 A3039 RMK AO2 T11601175 11126 21175
KFLY 161135Z AUTO 25006KT 7SM -SN CLR M17/M19 A3039 RMK AO2 T11751191
KFLY 161115Z AUTO 25006KT 10SM CLR M17/M19 A3039 RMK AO2 T11701187
KFLY 161055Z AUTO 24007KT 10SM SCT001 M17/M19 A3039 RMK AO2 T11711188
KFLY 161035Z AUTO 25008KT 1 3/4SM -SN OVC001 M16/M17 A3040 RMK AO2 VIS 3/4V5 T11601172
KFLY 161015Z AUTO 24008KT 2SM -SN OVC001 M15/M16 A3041 RMK AO2 T11521164
KFLY 160955Z AUTO 25008KT 2SM -SN OVC003 M15/M16 A3041 RMK AO2 T11501162
KFLY 160935Z AUTO 24008KT 2SM -SN BKN003 M15/M17 A3041 RMK AO2 T11541169
KFLY 160915Z AUTO 25008KT 1 1/2SM -SN BKN003 M15/M16 A3042 RMK AO2 T11501162
KFLY 160855Z AUTO 27007KT 4SM -SN CLR M16/M17 A3041 RMK AO2 T11571171
KFLY 160835Z AUTO 26009KT 7SM -SN CLR M16/M17 A3040 RMK AO2 T11571169
KFLY 160815Z AUTO 27006KT 7SM -SN CLR M15/M16 A3040 RMK AO2 T11501162
KFLY 160755Z AUTO 26008KT 7SM -SN CLR M14/M16 A3040 RMK AO2 T11441157
KFLY 160735Z AUTO 27007KT 3SM -SN SCT002 M14/M16 A3041 RMK AO2 T11451158
KFLY 160715Z AUTO 26009KT 5SM -SN CLR M14/M15 A3042 RMK AO2 T11421155
KFLY 160655Z AUTO 25007KT 3SM -SN SCT005 M14/M15 A3042 RMK AO2 T11401152 400181140
KFLY 160635Z AUTO 25008KT 2 1/2SM -SN SCT005 BKN011 M14/M15 A3043 RMK AO2 T11371150
KFLY 160615Z AUTO 24007KT 2SM -SN OVC010 M13/M14 A3043 RMK AO2 T11321145
KFLY 160555Z AUTO 23008KT 3SM -SN OVC010 M12/M14 A3043 RMK AO2 T11251137 11107 21139
KFLY 160535Z AUTO 20009KT 3SM -SN OVC008 M12/M13 A3043 RMK AO2 T11161128
KFLY 160515Z AUTO 20007KT 4SM -SN OVC006 M11/M12 A3043 RMK AO2 T11151125
KFLY 160455Z AUTO 22006KT 4SM -SN OVC006 M11/M12 A3042 RMK AO2 T11111120
KFLY 160435Z AUTO 23006KT 7SM -SN OVC006 M11/M12 A3042 RMK AO2 T11071117
KFLY 160415Z AUTO 23006KT 10SM -SN OVC008 M11/M12 A3042 RMK AO2 T11081121
KFLY 160355Z AUTO 24006KT 10SM -SN OVC008 M11/M13 A3042 RMK AO2 T11091133
KFLY 160335Z AUTO 24004KT 7SM -SN OVC010 M11/M14 A3042 RMK AO2 T11111138
KFLY 160315Z AUTO 00000KT 10SM -SN OVC012 M12/M15 A3043 RMK AO2 T11161146
KFLY 160255Z AUTO 34004KT 10SM -SN BKN012 M13/M15 A3043 RMK AO2 T11261150
KFLY 160235Z AUTO 31003KT 10SM SCT016 SCT050 M14/M16 A3042 RMK AO2 T11361163
KFLY 160215Z AUTO 35004KT 10SM BKN050 M13/M16 A3042 RMK AO2 T11321158
KFLY 160155Z AUTO 33003KT 10SM SCT055 M13/M16 A3042 RMK AO2 T11321159
KFLY 160135Z AUTO 35005KT 10SM SCT050 M13/M16 A3042 RMK AO2 T11291156
KFLY 160115Z AUTO 35003KT 10SM OVC050 M12/M15 A3041 RMK AO2 T11211152
KFLY 160055Z AUTO 34005KT 10SM OVC050 M12/M15 A3040 RMK AO2 T11171153
KFLY 160035Z AUTO 36005KT 10SM OVC050 M11/M15 A3039 RMK AO2 T11151155
KFLY 160015Z AUTO 36005KT 10SM SCT017 OVC050 M11/M15 A3039 RMK AO2 T11121152
KFLY 152355Z AUTO 35006KT 10SM SCT017 OVC046 M11/M15 A3038 RMK AO2 T11121151 11090 21112
KFLY 152335Z AUTO 36007KT 10SM OVC042 M11/M15 A3037 RMK AO2 T11081146
KFLY 152315Z AUTO 36006KT 10SM -SN SCT016 OVC038 M11/M14 A3037 RMK AO2 T11101145
KFLY 152255Z AUTO 03009KT 10SM SCT016 OVC038 M11/M14 A3037 RMK AO2 T11071142
KFLY 152235Z AUTO 36008KT 10SM -SN SCT016 OVC038 M11/M14 A3036 RMK AO2 T11061144
KFLY 152215Z AUTO 36007KT 320V030 10SM SCT016 OVC038 M10/M14 A3035 RMK AO2 T11051143
KFLY 152155Z AUTO 01007KT 10SM SCT030 OVC038 M10/M14 A3035 RMK AO2 T11051144
KFLY 152135Z AUTO 36013G20KT 10SM -SN OVC033 M11/M14 A3033 RMK AO2 T11071143
KFLY 152115Z AUTO 01016KT 7SM -SN BKN027 OVC037 M11/M14 A3033 RMK AO2 T11081144
KFLY 152055Z AUTO 01014KT 5SM -SN OVC027 M11/M14 A3032 RMK AO2 T11071143
KFLY 152035Z AUTO 01016G21KT 7SM -SN OVC027 M10/M14 A3031 RMK AO2 T11021140
KFLY 152015Z AUTO 36014G22KT 4SM -SN BKN023 OVC031 M10/M14 A3031 RMK AO2 T10981137
KFLY 151955Z AUTO 36014G20KT 7SM -SN OVC023 M10/M14 A3031 RMK AO2 T10971136
KFLY 151935Z AUTO 36014G19KT 5SM -SN OVC021 M10/M14 A3031 RMK AO2 T10961137
KFLY 151915Z AUTO 36015G23KT 7SM -SN OVC021 M10/M14 A3032 RMK AO2 T11001140
KFLY 151855Z AUTO 35017G25KT 10SM OVC021 M10/M14 A3033 RMK AO2 T10991140
KFLY 151835Z AUTO 36012G21KT 10SM OVC021 M10/M13 A3034 RMK AO2 T10961135
KFLY 151815Z AUTO 01013G17KT 10SM OVC021 M09/M12 A3036 RMK AO2 T10901122
KFLY 151755Z AUTO 36011G17KT 10SM OVC021 M09/M12 A3036 RMK AO2 T10931121 11038 21097
KFLY 151735Z AUTO 36012G22KT 10SM OVC021 M10/M13 A3036 RMK AO2 T10961127
KFLY 151715Z AUTO 36013G17KT 10SM OVC021 M09/M11 A3035 RMK AO2 T10901109
KFLY 151655Z AUTO 36016G22KT 10SM -SN SCT010 OVC021 M09/M11 A3035 RMK AO2 T10911110
KFLY 151635Z AUTO 36012G20KT 7SM -SN BKN008 BKN012 OVC019 M09/M11 A3035 RMK AO2 T10901106
KFLY 151555Z AUTO 01014G18KT 10SM SCT017 OVC022 M08/M09 A3033 RMK AO2 T10811091
KFLY 151535Z AUTO 01013G18KT 10SM SCT007 BKN017 OVC022 M08/M09 A3033 RMK AO2 T10811091
KFLY 151515Z AUTO 01013G18KT 7SM BKN007 OVC013 M08/M09 A3031 RMK AO2 T10771086
KFLY 151415Z AUTO 02009KT 10SM OVC007 M06/M07 A3030 RMK AO2 T10651071
KFLY 151355Z AUTO 02013KT 7SM OVC007 M07/M07 A3030 RMK AO2 T10661072
KFLY 151335Z AUTO 02012KT 5SM BR OVC003 M06/M07 A3030 RMK AO2 T10641069
KFLY 151315Z AUTO 02011KT 4SM BR OVC003 M06/M06 A3028 RMK AO2 T10611065
KFLY 151255Z AUTO 02012G16KT 3SM BR OVC003 M06/M06 A3027 RMK AO2 T10601062
KFLY 151235Z AUTO 03014KT 1SM -SN OVC003 M05/M05 A3027 RMK AO2 T10521055
KFLY 151215Z AUTO 03010KT 2 1/2SM BR OVC003 M04/M04 A3026 RMK AO2 T10401045
KFLY 151155Z AUTO 03006KT 10SM OVC005 M04/M04 A3026 RMK AO2 T10381045 10023 21041
KFLY 151135Z AUTO 02007KT 10SM OVC005 M04/M04 A3026 RMK AO2 T10361045
KFLY 151115Z AUTO 02005G14KT 10SM OVC005 M04/M04 A3025 RMK AO2 T10361044